Time;durP1;ratioP1;P1;durP2;ratioP2;P2;SDS_P1;SDS_P2;PMS_P1;PMS_P2;Temp;Humidity;BMP_temperature;BMP_pressure;BME280_temperature;BME280_humidity;BME280_pressure;Samples;Min_cycle;Max_cycle;Signal;HPM_P1;HPM_P2
2023/05/19 00:00:30;;;;;;;13.97;4.80;;;7.90;99.90;;;;;;4437666;28;658566;-75
2023/05/19 00:03:20;;;;;;;8.73;4.63;;;7.80;99.90;;;;;;4423342;28;660151;-74
2023/05/19 00:06:08;;;;;;;11.17;4.90;;;7.80;99.90;;;;;;4419092;28;658434;-74
2023/05/19 00:08:57;;;;;;;9.73;4.87;;;7.80;99.90;;;;;;4421606;28;658641;-74
2023/05/19 00:11:45;;;;;;;11.30;5.13;;;7.80;99.90;;;;;;4438901;28;658373;-74
2023/05/19 00:14:33;;;;;;;10.93;4.67;;;7.80;99.90;;;;;;4436711;28;659828;-75
2023/05/19 00:17:21;;;;;;;8.63;4.45;;;7.80;99.90;;;;;;4419737;28;658548;-74
2023/05/19 00:20:10;;;;;;;9.80;4.60;;;7.80;99.90;;;;;;4441506;28;658217;-74
2023/05/19 00:22:58;;;;;;;12.07;4.70;;;7.80;99.90;;;;;;4414284;28;658236;-74
2023/05/19 00:25:47;;;;;;;8.47;3.97;;;7.90;99.90;;;;;;4426483;28;658522;-74
2023/05/19 00:28:34;;;;;;;8.93;4.60;;;7.90;99.90;;;;;;4449530;28;657390;-74
2023/05/19 00:31:21;;;;;;;10.73;5.43;;;7.90;99.90;;;;;;4423721;28;658014;-74
2023/05/19 00:34:08;;;;;;;12.67;6.10;;;7.90;99.90;;;;;;4446131;28;659861;-74
2023/05/19 00:36:55;;;;;;;10.00;4.97;;;7.90;99.90;;;;;;4422859;28;659293;-75
2023/05/19 00:39:42;;;;;;;10.17;4.67;;;7.90;99.90;;;;;;4439745;28;659494;-74
2023/05/19 00:42:32;;;;;;;8.83;4.17;;;7.90;99.90;;;;;;4436736;28;658457;-75
2023/05/19 00:45:19;;;;;;;10.73;4.03;;;7.90;99.90;;;;;;4445660;28;657435;-74
2023/05/19 00:48:06;;;;;;;13.63;4.40;;;7.90;99.90;;;;;;4414823;28;658778;-74
2023/05/19 00:50:53;;;;;;;9.20;4.17;;;7.90;99.90;;;;;;4434359;28;659087;-74
2023/05/19 00:53:42;;;;;;;10.10;4.57;;;7.90;99.90;;;;;;4421209;28;658022;-75
2023/05/19 00:56:29;;;;;;;9.17;4.33;;;7.90;99.90;;;;;;4437468;28;660444;-75
2023/05/19 00:59:18;;;;;;;8.90;4.40;;;7.80;99.90;;;;;;4419588;28;658037;-74
2023/05/19 01:02:06;;;;;;;9.00;4.03;;;7.90;99.90;;;;;;4415550;28;657975;-74
2023/05/19 01:04:55;;;;;;;9.03;4.67;;;7.90;99.90;;;;;;4442909;28;657980;-75
2023/05/19 01:07:42;;;;;;;8.63;4.40;;;7.90;99.90;;;;;;4422385;28;658791;-74
2023/05/19 01:10:29;;;;;;;8.47;4.83;;;7.90;99.90;;;;;;4442293;28;657337;-75
2023/05/19 01:13:16;;;;;;;12.88;4.93;;;8.00;99.90;;;;;;4424134;28;657810;-74
2023/05/19 01:16:07;;;;;;;11.57;5.23;;;8.00;99.90;;;;;;4440739;28;659826;-74
2023/05/19 01:19:00;;;;;;;12.37;5.07;;;8.00;99.90;;;;;;4412573;28;658562;-74
2023/05/19 01:22:11;;;;;;;9.30;5.13;;;8.00;99.90;;;;;;4421875;28;659106;-74
2023/05/19 01:25:34;;;;;;;8.10;4.63;;;8.00;99.90;;;;;;4421791;28;658724;-75
2023/05/19 01:28:31;;;;;;;10.90;4.63;;;8.00;99.90;;;;;;4395291;28;657817;-74
2023/05/19 01:31:22;;;;;;;11.97;4.50;;;8.00;99.90;;;;;;4413134;28;658855;-75
2023/05/19 01:34:09;;;;;;;9.93;4.63;;;8.00;99.90;;;;;;4418440;28;659023;-74
2023/05/19 01:36:56;;;;;;;10.50;4.83;;;8.00;99.90;;;;;;4420559;28;657662;-74
2023/05/19 01:39:45;;;;;;;10.07;4.70;;;7.90;99.90;;;;;;4438829;28;659109;-74
2023/05/19 01:42:36;;;;;;;10.33;4.97;;;8.00;99.90;;;;;;4417433;28;660859;-75
2023/05/19 01:45:23;;;;;;;10.30;4.33;;;8.00;99.90;;;;;;4413526;28;659004;-74
2023/05/19 01:48:12;;;;;;;16.00;4.97;;;7.90;99.90;;;;;;4419878;28;658688;-74
2023/05/19 01:50:59;;;;;;;7.87;4.63;;;7.90;99.90;;;;;;4439150;28;659139;-74
2023/05/19 01:53:47;;;;;;;11.32;5.55;;;7.90;99.90;;;;;;4416617;28;658210;-74
2023/05/19 01:56:46;;;;;;;12.73;5.57;;;7.90;99.90;;;;;;4441117;28;658483;-75
2023/05/19 01:59:41;;;;;;;8.67;4.50;;;7.90;99.90;;;;;;4417452;28;659548;-75
2023/05/19 02:02:31;;;;;;;9.70;4.50;;;7.90;99.90;;;;;;4418449;28;657289;-75
2023/05/19 02:05:27;;;;;;;8.77;4.57;;;7.90;99.90;;;;;;4421456;28;657678;-74
2023/05/19 02:08:16;;;;;;;9.37;4.30;;;7.90;99.90;;;;;;4422991;28;658665;-75
2023/05/19 02:11:07;;;;;;;8.27;4.53;;;7.90;99.90;;;;;;4422111;28;657689;-74
2023/05/19 02:13:56;;;;;;;8.60;4.27;;;7.90;99.90;;;;;;4421838;28;657226;-74
2023/05/19 02:16:43;;;;;;;9.23;4.40;;;7.90;99.90;;;;;;4420856;28;658363;-74
2023/05/19 02:19:32;;;;;;;10.20;4.53;;;7.90;99.90;;;;;;4422398;28;658180;-74
2023/05/19 02:22:20;;;;;;;12.83;5.47;;;7.90;99.90;;;;;;4444900;28;658974;-75
2023/05/19 02:25:08;;;;;;;14.10;6.93;;;7.80;99.90;;;;;;4421091;28;659757;-74
2023/05/19 02:27:55;;;;;;;12.57;6.75;;;7.80;99.90;;;;;;4419596;28;658991;-74
2023/05/19 02:30:42;;;;;;;16.73;6.63;;;7.80;99.90;;;;;;4442227;28;659512;-74
2023/05/19 02:33:30;;;;;;;11.93;5.57;;;7.80;99.90;;;;;;4442896;28;658509;-74
2023/05/19 02:36:17;;;;;;;11.73;5.70;;;7.80;99.90;;;;;;4447953;28;658895;-75
2023/05/19 02:39:07;;;;;;;10.73;5.67;;;7.80;99.90;;;;;;4438883;28;658585;-74
2023/05/19 02:41:54;;;;;;;11.13;5.60;;;7.80;99.90;;;;;;4439460;28;658603;-74
2023/05/19 02:44:41;;;;;;;12.13;6.37;;;7.80;99.90;;;;;;4420791;28;658638;-75
2023/05/19 02:47:29;;;;;;;11.23;5.60;;;7.80;99.90;;;;;;4441032;28;658784;-74
2023/05/19 02:50:16;;;;;;;11.63;6.00;;;7.70;99.90;;;;;;4420009;28;660223;-74
2023/05/19 02:53:04;;;;;;;14.67;5.37;;;7.70;99.90;;;;;;4447026;28;659713;-74
2023/05/19 02:55:52;;;;;;;11.00;5.10;;;7.70;99.90;;;;;;4419623;28;659031;-74
2023/05/19 02:58:41;;;;;;;13.10;5.80;;;7.70;99.90;;;;;;4313344;28;658419;-73
2023/05/19 03:01:31;;;;;;;11.60;6.13;;;7.70;99.90;;;;;;4280691;28;658887;-73
2023/05/19 03:04:19;;;;;;;12.97;6.47;;;7.70;99.90;;;;;;4288370;28;658322;-73
2023/05/19 03:07:08;;;;;;;10.90;6.07;;;7.70;99.90;;;;;;4397076;28;658501;-74
2023/05/19 03:09:55;;;;;;;12.33;5.57;;;7.70;99.90;;;;;;4422546;28;658532;-74
2023/05/19 03:12:44;;;;;;;12.83;5.70;;;7.70;99.90;;;;;;4440357;28;660127;-75
2023/05/19 03:15:32;;;;;;;10.00;5.13;;;7.70;99.90;;;;;;4423222;28;658479;-74
2023/05/19 03:18:19;;;;;;;10.77;5.47;;;7.80;99.90;;;;;;4446853;28;659502;-74
2023/05/19 03:21:06;;;;;;;11.80;5.17;;;7.80;99.90;;;;;;4423260;28;658419;-74
2023/05/19 03:23:54;;;;;;;10.88;5.43;;;7.90;99.90;;;;;;4445182;28;659613;-74
2023/05/19 03:26:41;;;;;;;15.30;6.40;;;7.90;99.90;;;;;;4423066;28;658473;-74
2023/05/19 03:29:30;;;;;;;12.30;5.77;;;8.00;99.90;;;;;;4441555;28;659856;-74
2023/05/19 03:32:17;;;;;;;11.30;6.30;;;8.00;99.90;;;;;;4421878;28;658857;-75
2023/05/19 03:35:05;;;;;;;14.85;6.40;;;8.10;99.90;;;;;;4443794;28;658717;-74
2023/05/19 03:37:52;;;;;;;11.80;5.67;;;8.10;99.90;;;;;;4415318;28;659998;-74
2023/05/19 03:40:40;;;;;;;14.93;6.47;;;8.10;99.90;;;;;;4441184;28;659360;-74
2023/05/19 03:43:27;;;;;;;10.97;5.90;;;8.20;99.90;;;;;;4416502;28;659547;-73
2023/05/19 03:46:16;;;;;;;12.67;6.73;;;8.20;99.90;;;;;;4442807;28;660388;-75
2023/05/19 03:49:03;;;;;;;14.30;7.23;;;8.30;99.90;;;;;;4418842;28;659184;-74
2023/05/19 03:51:50;;;;;;;13.60;8.32;;;8.40;99.90;;;;;;4425294;28;659178;-74
2023/05/19 03:54:38;;;;;;;16.13;7.27;;;8.40;99.90;;;;;;4441379;28;660062;-74
2023/05/19 03:57:25;;;;;;;19.80;7.43;;;8.40;99.90;;;;;;4419981;28;658892;-74
2023/05/19 04:00:13;;;;;;;17.57;7.43;;;8.40;99.90;;;;;;4441319;28;660076;-74
2023/05/19 04:03:02;;;;;;;17.50;7.83;;;8.50;99.90;;;;;;4422324;28;658947;-74
2023/05/19 04:05:50;;;;;;;18.30;9.13;;;8.50;99.90;;;;;;4439488;28;658992;-75
2023/05/19 04:08:37;;;;;;;17.53;8.50;;;8.60;99.90;;;;;;4422911;28;659654;-74
2023/05/19 04:11:24;;;;;;;19.33;7.77;;;8.50;99.90;;;;;;4435810;28;659062;-75
2023/05/19 04:14:12;;;;;;;16.93;8.00;;;8.60;99.90;;;;;;4418185;28;660136;-74
2023/05/19 04:16:59;;;;;;;15.48;7.68;;;8.50;99.90;;;;;;4437052;28;658800;-74
2023/05/19 04:19:47;;;;;;;14.03;7.07;;;8.60;99.90;;;;;;4418906;28;658846;-74
2023/05/19 04:22:35;;;;;;;14.87;7.23;;;8.60;99.90;;;;;;4435860;28;659079;-74
2023/05/19 04:25:23;;;;;;;16.37;7.43;;;8.60;99.90;;;;;;4446671;28;658890;-74
2023/05/19 04:28:11;;;;;;;18.27;8.23;;;8.60;99.90;;;;;;4418758;28;658836;-74
2023/05/19 04:30:58;;;;;;;16.23;8.17;;;8.60;99.90;;;;;;4439153;28;659152;-74
2023/05/19 04:33:46;;;;;;;15.10;8.33;;;8.60;99.90;;;;;;4420192;28;658463;-74
2023/05/19 04:36:35;;;;;;;20.10;9.07;;;8.70;99.90;;;;;;4437635;28;658882;-74
2023/05/19 04:39:23;;;;;;;20.43;8.60;;;8.60;99.90;;;;;;4423500;28;658966;-74
2023/05/19 04:42:10;;;;;;;16.50;9.00;;;8.70;99.90;;;;;;4433633;28;658430;-74
2023/05/19 04:44:57;;;;;;;19.80;9.30;;;8.80;99.90;;;;;;4438263;28;660142;-74
2023/05/19 04:47:46;;;;;;;18.57;8.70;;;8.80;99.90;;;;;;4436969;28;659138;-74
2023/05/19 04:50:37;;;;;;;16.93;8.90;;;8.90;99.90;;;;;;4439338;28;658447;-74
2023/05/19 04:53:25;;;;;;;15.57;8.00;;;8.90;99.90;;;;;;4422148;28;659140;-75
2023/05/19 04:56:14;;;;;;;15.60;8.13;;;8.90;99.90;;;;;;4417396;28;659028;-74
2023/05/19 04:59:01;;;;;;;19.23;8.87;;;9.00;99.90;;;;;;4418244;28;658458;-74
2023/05/19 05:01:48;;;;;;;17.67;9.30;;;9.00;99.90;;;;;;4442774;28;659081;-75
2023/05/19 05:04:36;;;;;;;13.67;8.13;;;9.00;99.90;;;;;;4415195;28;658941;-73
2023/05/19 05:07:23;;;;;;;14.27;8.30;;;9.10;99.90;;;;;;4446456;28;659299;-75
2023/05/19 05:10:12;;;;;;;15.30;8.83;;;9.10;99.90;;;;;;4420596;28;658759;-76
2023/05/19 05:13:00;;;;;;;17.47;8.50;;;9.10;99.90;;;;;;4433294;28;658491;-74
2023/05/19 05:15:48;;;;;;;14.00;7.90;;;9.20;99.90;;;;;;4411771;28;659751;-75
2023/05/19 05:18:37;;;;;;;15.20;7.70;;;9.20;99.90;;;;;;4416684;28;658396;-74
2023/05/19 05:21:25;;;;;;;15.93;7.90;;;9.20;99.90;;;;;;4437853;28;660640;-73
2023/05/19 05:24:13;;;;;;;16.93;8.40;;;9.30;99.90;;;;;;4421392;28;659297;-75
2023/05/19 05:27:02;;;;;;;17.17;8.60;;;9.30;99.90;;;;;;4420420;28;658757;-74
2023/05/19 05:29:49;;;;;;;15.93;8.97;;;9.30;99.90;;;;;;4437806;28;658394;-75
2023/05/19 05:32:37;;;;;;;16.37;8.70;;;9.30;99.90;;;;;;4421016;28;659061;-75
2023/05/19 05:35:24;;;;;;;16.83;9.13;;;9.30;99.90;;;;;;4438316;28;659154;-75
2023/05/19 05:38:11;;;;;;;16.27;8.63;;;9.40;99.90;;;;;;4422772;28;658981;-75
2023/05/19 05:40:59;;;;;;;14.13;8.03;;;9.40;99.90;;;;;;4442664;28;658277;-75
2023/05/19 05:43:48;;;;;;;18.97;8.63;;;9.40;99.90;;;;;;4416457;28;658727;-74
2023/05/19 05:46:36;;;;;;;15.97;8.70;;;9.30;99.90;;;;;;4421468;28;658475;-73
2023/05/19 05:49:23;;;;;;;17.37;8.73;;;9.40;99.90;;;;;;4444768;28;659357;-73
2023/05/19 05:52:11;;;;;;;16.73;8.83;;;9.40;99.90;;;;;;4424493;28;658324;-73
2023/05/19 05:54:59;;;;;;;18.37;9.67;;;9.50;99.90;;;;;;4447501;28;659366;-74
2023/05/19 05:57:47;;;;;;;20.00;9.60;;;9.50;99.90;;;;;;4421928;28;658882;-73
2023/05/19 06:00:36;;;;;;;16.93;8.40;;;9.40;99.90;;;;;;4442350;28;659752;-73
2023/05/19 06:03:23;;;;;;;18.67;9.17;;;9.50;99.90;;;;;;4419684;28;658929;-73
2023/05/19 06:06:10;;;;;;;14.83;8.40;;;9.60;99.90;;;;;;4422914;28;659009;-73
2023/05/19 06:08:57;;;;;;;17.53;9.27;;;9.60;99.90;;;;;;4447384;28;659543;-74
2023/05/19 06:11:45;;;;;;;22.07;9.27;;;9.60;99.90;;;;;;4441614;28;658549;-73
2023/05/19 06:14:32;;;;;;;22.13;9.90;;;9.60;99.90;;;;;;4442301;28;659443;-73
2023/05/19 06:17:21;;;;;;;19.57;10.07;;;9.70;99.90;;;;;;4441087;28;658450;-73
2023/05/19 06:20:09;;;;;;;18.13;9.57;;;9.80;99.90;;;;;;4412289;28;660973;-73
2023/05/19 06:22:57;;;;;;;22.63;9.60;;;9.80;99.90;;;;;;4411384;28;660451;-73
2023/05/19 06:25:44;;;;;;;23.57;8.93;;;9.90;99.90;;;;;;4449876;28;658772;-74
2023/05/19 06:28:31;;;;;;;25.60;9.97;;;9.90;99.90;;;;;;4419946;28;658688;-74
2023/05/19 06:31:18;;;;;;;23.17;10.13;;;10.00;99.90;;;;;;4441755;28;659589;-73
2023/05/19 06:34:09;;;;;;;21.23;9.90;;;10.00;99.90;;;;;;4420538;28;661507;-73
2023/05/19 06:36:56;;;;;;;22.77;9.97;;;10.10;99.90;;;;;;4417450;28;660471;-74
2023/05/19 06:39:43;;;;;;;22.63;10.20;;;10.20;99.90;;;;;;4442010;28;661000;-74
2023/05/19 06:42:30;;;;;;;21.40;9.53;;;10.30;99.90;;;;;;4420138;28;661346;-74
2023/05/19 06:45:20;;;;;;;21.00;8.27;;;10.30;99.90;;;;;;4440773;28;659714;-74
2023/05/19 06:48:07;;;;;;;19.67;9.27;;;10.30;99.90;;;;;;4416103;28;660608;-74
2023/05/19 06:50:56;;;;;;;21.53;8.93;;;10.30;99.90;;;;;;4443255;28;659253;-74
2023/05/19 06:53:43;;;;;;;21.13;9.30;;;10.50;99.90;;;;;;4414313;28;660865;-74
2023/05/19 06:56:30;;;;;;;17.23;8.07;;;10.60;99.90;;;;;;4423738;28;660009;-73
2023/05/19 06:59:20;;;;;;;21.03;9.23;;;10.50;99.90;;;;;;4445971;28;660063;-74
2023/05/19 07:02:07;;;;;;;23.57;8.23;;;10.60;99.90;;;;;;4416837;28;661084;-74
2023/05/19 07:04:56;;;;;;;18.00;7.97;;;10.80;99.90;;;;;;4438406;28;660173;-73
2023/05/19 07:07:45;;;;;;;21.97;7.83;;;10.80;99.90;;;;;;4442272;28;660644;-73
2023/05/19 07:10:32;;;;;;;18.80;8.30;;;10.90;99.90;;;;;;4414230;28;661433;-73
2023/05/19 07:13:19;;;;;;;17.37;7.37;;;11.00;99.90;;;;;;4444809;28;659535;-73
2023/05/19 07:16:07;;;;;;;18.47;7.43;;;11.10;99.90;;;;;;4421473;28;660047;-73
2023/05/19 07:18:54;;;;;;;20.70;7.60;;;11.00;99.90;;;;;;4438750;28;659835;-73
2023/05/19 07:21:41;;;;;;;17.93;6.97;;;11.20;99.90;;;;;;4424510;28;659545;-73
2023/05/19 07:24:30;;;;;;;16.20;7.07;;;11.40;99.90;;;;;;4437669;28;660070;-74
2023/05/19 07:27:17;;;;;;;17.50;7.20;;;11.50;99.90;;;;;;4422300;28;659998;-74
2023/05/19 07:30:05;;;;;;;19.30;7.23;;;11.50;99.90;;;;;;4437477;28;659900;-73
2023/05/19 07:32:52;;;;;;;18.97;7.03;;;11.60;99.90;;;;;;4421553;28;660379;-73
2023/05/19 07:35:39;;;;;;;15.87;6.47;;;11.70;99.90;;;;;;4438897;28;660737;-73
2023/05/19 07:38:27;;;;;;;15.47;6.47;;;11.70;99.90;;;;;;4422032;28;660498;-73
2023/05/19 07:41:16;;;;;;;16.77;6.97;;;11.70;99.90;;;;;;4439646;28;660369;-74
2023/05/19 07:44:06;;;;;;;15.77;6.57;;;11.90;99.90;;;;;;4417909;28;659999;-74
2023/05/19 07:46:53;;;;;;;12.97;6.13;;;12.20;99.90;;;;;;4416245;28;660601;-73
2023/05/19 07:49:40;;;;;;;17.33;6.50;;;12.40;99.90;;;;;;4419838;28;659708;-74
2023/05/19 07:52:27;;;;;;;14.07;7.03;;;12.60;99.90;;;;;;4445442;28;660587;-73
2023/05/19 07:55:16;;;;;;;15.53;6.87;;;12.60;99.90;;;;;;4431640;28;659756;-73
2023/05/19 07:58:05;;;;;;;12.77;6.70;;;12.50;99.90;;;;;;4439921;28;660162;-73
2023/05/19 08:00:52;;;;;;;11.00;6.20;;;12.30;99.90;;;;;;4420702;28;660737;-74
2023/05/19 08:03:39;;;;;;;14.47;6.63;;;12.30;99.90;;;;;;4437822;28;660190;-74
2023/05/19 08:06:27;;;;;;;16.63;7.53;;;12.40;99.90;;;;;;4418913;28;660095;-73
2023/05/19 08:09:14;;;;;;;13.07;6.17;;;12.40;99.90;;;;;;4440451;28;660301;-72
2023/05/19 08:12:03;;;;;;;14.00;6.30;;;12.50;99.90;;;;;;4420247;28;660018;-73
2023/05/19 08:14:52;;;;;;;13.67;6.63;;;12.60;99.90;;;;;;4419580;28;659405;-73
2023/05/19 08:17:39;;;;;;;16.10;6.90;;;12.70;99.90;;;;;;4435253;28;659621;-74
2023/05/19 08:20:26;;;;;;;12.93;6.43;;;12.80;99.90;;;;;;4419428;28;660000;-73
2023/05/19 08:23:14;;;;;;;20.10;6.90;;;13.00;99.90;;;;;;4440462;28;659188;-74
2023/05/19 08:26:01;;;;;;;14.50;7.10;;;12.80;99.90;;;;;;4420698;28;660452;-74
2023/05/19 08:28:48;;;;;;;13.97;6.17;;;12.80;99.90;;;;;;4435497;28;661386;-73
2023/05/19 08:31:37;;;;;;;19.47;6.93;;;12.60;99.90;;;;;;4420526;28;660082;-72
2023/05/19 08:34:24;;;;;;;15.67;7.10;;;12.60;99.90;;;;;;4437894;28;659854;-73
2023/05/19 08:37:11;;;;;;;13.13;7.00;;;12.40;99.90;;;;;;4418341;28;659805;-73
2023/05/19 08:39:59;;;;;;;13.53;7.50;;;12.30;99.90;;;;;;4438205;28;659802;-73
2023/05/19 08:42:46;;;;;;;17.07;7.80;;;12.10;99.90;;;;;;4420791;28;660336;-72
2023/05/19 08:45:34;;;;;;;16.67;7.50;;;12.00;99.90;;;;;;4439777;28;659842;-73
2023/05/19 08:48:22;;;;;;;15.17;7.13;;;11.80;99.90;;;;;;4421106;28;659713;-73
2023/05/19 08:51:14;;;;;;;15.13;7.70;;;11.90;99.90;;;;;;4432337;28;659953;-73
2023/05/19 08:54:14;;;;;;;21.07;8.43;;;11.70;99.90;;;;;;4361905;28;660572;-72
2023/05/19 08:57:02;;;;;;;13.20;7.80;;;11.60;99.90;;;;;;4292386;28;660260;-72
2023/05/19 08:59:49;;;;;;;17.53;8.30;;;11.70;99.90;;;;;;4318229;28;659302;-73
2023/05/19 09:02:36;;;;;;;17.90;8.93;;;11.90;99.90;;;;;;4299785;28;660474;-73
2023/05/19 09:05:25;;;;;;;17.73;9.20;;;12.10;99.90;;;;;;4440247;28;660147;-75
2023/05/19 09:08:12;;;;;;;18.70;8.23;;;12.20;99.90;;;;;;4419871;28;659911;-74
2023/05/19 09:10:59;;;;;;;15.00;7.93;;;12.20;99.90;;;;;;4437653;28;660539;-73
2023/05/19 09:13:47;;;;;;;16.23;7.90;;;12.20;99.90;;;;;;4418470;28;660230;-74
2023/05/19 09:16:34;;;;;;;15.83;7.93;;;12.20;99.90;;;;;;4435175;28;659633;-75
2023/05/19 09:19:21;;;;;;;18.03;8.50;;;12.00;99.90;;;;;;4417545;28;660390;-73
2023/05/19 09:22:10;;;;;;;15.00;7.90;;;12.10;99.90;;;;;;4436656;28;660014;-74
2023/05/19 09:24:57;;;;;;;16.27;8.17;;;12.20;99.90;;;;;;4415260;28;660296;-73
2023/05/19 09:27:46;;;;;;;17.27;8.00;;;12.40;99.90;;;;;;4433606;28;660329;-73
2023/05/19 09:30:33;;;;;;;14.43;7.67;;;12.60;99.90;;;;;;4436206;28;660879;-75
2023/05/19 09:33:21;;;;;;;14.87;7.90;;;12.70;99.90;;;;;;4419502;28;660462;-73
2023/05/19 09:36:09;;;;;;;13.17;7.70;;;12.80;99.90;;;;;;4439884;28;659778;-72
2023/05/19 09:38:58;;;;;;;17.87;8.77;;;13.00;99.90;;;;;;4408636;28;660033;-73
2023/05/19 09:41:45;;;;;;;14.20;8.03;;;13.00;99.90;;;;;;4421992;28;659399;-73
2023/05/19 09:44:34;;;;;;;14.40;8.37;;;12.90;99.90;;;;;;4442543;28;659957;-73
2023/05/19 09:47:21;;;;;;;16.57;8.20;;;12.90;99.90;;;;;;4418249;28;660057;-73
2023/05/19 09:50:11;;;;;;;16.13;8.47;;;12.90;99.90;;;;;;4439630;28;660861;-73
2023/05/19 09:52:58;;;;;;;16.77;8.40;;;12.90;99.90;;;;;;4412829;28;660360;-72
2023/05/19 09:55:47;;;;;;;14.30;7.90;;;12.70;99.90;;;;;;4418917;28;659972;-72
2023/05/19 09:58:35;;;;;;;14.07;8.23;;;12.70;99.90;;;;;;4439450;28;659680;-73
2023/05/19 10:01:22;;;;;;;15.30;7.70;;;12.70;99.90;;;;;;4414683;28;660689;-73
2023/05/19 10:04:09;;;;;;;17.07;8.33;;;12.80;99.90;;;;;;4439566;28;660148;-73
2023/05/19 10:06:58;;;;;;;16.23;8.00;;;12.80;99.90;;;;;;4420379;28;660625;-73
2023/05/19 10:09:45;;;;;;;14.10;7.83;;;12.90;99.90;;;;;;4423900;28;659634;-73
2023/05/19 10:12:34;;;;;;;15.10;8.50;;;12.90;99.90;;;;;;4440615;28;660446;-73
2023/05/19 10:15:21;;;;;;;16.30;8.50;;;13.00;99.90;;;;;;4419103;28;660623;-73
2023/05/19 10:18:09;;;;;;;12.87;8.07;;;13.00;99.90;;;;;;4435045;28;660912;-73
2023/05/19 10:20:57;;;;;;;17.90;8.60;;;13.00;99.90;;;;;;4417208;28;660197;-72
2023/05/19 10:23:44;;;;;;;17.07;7.67;;;12.90;99.90;;;;;;4444035;28;659597;-73
2023/05/19 10:26:31;;;;;;;19.97;8.40;;;13.00;99.90;;;;;;4421514;28;660418;-73
2023/05/19 10:29:21;;;;;;;16.23;8.67;;;13.00;99.90;;;;;;4450413;28;661207;-74
2023/05/19 10:32:10;;;;;;;14.60;8.47;;;13.20;99.90;;;;;;4421522;28;660212;-73
2023/05/19 10:35:21;;;;;;;17.60;8.57;;;13.30;99.90;;;;;;4420671;28;660449;-74
2023/05/19 10:38:15;;;;;;;13.68;7.70;;;13.50;99.90;;;;;;4414275;28;659646;-73
2023/05/19 10:41:05;;;;;;;14.77;8.37;;;13.40;99.90;;;;;;4394266;28;660102;-74
2023/05/19 10:43:55;;;;;;;12.63;7.43;;;13.60;99.90;;;;;;4419165;28;661210;-74
2023/05/19 10:46:44;;;;;;;11.63;7.63;;;13.70;99.90;;;;;;4415246;28;659980;-73
2023/05/19 10:49:32;;;;;;;13.63;7.33;;;13.70;99.90;;;;;;4419471;28;660286;-73
2023/05/19 10:52:21;;;;;;;11.17;7.83;;;13.90;99.90;;;;;;4438668;28;660170;-73
2023/05/19 10:55:16;;;;;;;13.07;8.30;;;14.10;99.90;;;;;;4440857;28;659948;-73
2023/05/19 10:58:03;;;;;;;12.27;8.17;;;14.10;99.90;;;;;;4414814;28;659902;-74
2023/05/19 11:00:50;;;;;;;12.37;8.73;;;14.30;99.90;;;;;;4422599;28;659537;-73
2023/05/19 11:03:50;;;;;;;13.33;8.40;;;14.60;99.90;;;;;;4441225;28;661066;-73
2023/05/19 11:06:39;;;;;;;13.73;9.50;;;15.00;99.90;;;;;;4394585;28;660802;-74
2023/05/19 11:09:26;;;;;;;14.93;8.80;;;15.10;99.90;;;;;;4419462;28;659829;-74
2023/05/19 11:12:13;;;;;;;12.67;8.87;;;15.20;99.90;;;;;;4442067;28;660945;-74
2023/05/19 11:15:00;;;;;;;14.90;8.23;;;15.30;99.90;;;;;;4422304;28;659936;-73
2023/05/19 11:17:48;;;;;;;12.67;8.23;;;15.10;99.90;;;;;;4439889;28;661396;-74
2023/05/19 11:20:37;;;;;;;18.90;9.03;;;15.10;99.90;;;;;;4423564;28;659214;-73
2023/05/19 11:23:25;;;;;;;14.77;9.03;;;15.00;99.90;;;;;;4448153;28;659692;-74
2023/05/19 11:26:13;;;;;;;13.50;8.47;;;14.80;99.90;;;;;;4418225;28;660375;-74
2023/05/19 11:29:00;;;;;;;14.87;8.50;;;14.50;99.90;;;;;;4438287;28;660244;-73
2023/05/19 11:31:47;;;;;;;11.83;8.10;;;14.50;99.90;;;;;;4439867;28;660543;-74
2023/05/19 11:34:36;;;;;;;13.07;7.60;;;14.60;99.90;;;;;;4439681;28;660231;-73
2023/05/19 11:37:25;;;;;;;12.37;7.87;;;14.80;99.90;;;;;;4438594;28;660665;-73
2023/05/19 11:40:12;;;;;;;13.83;7.70;;;15.00;99.90;;;;;;4417131;28;661295;-73
2023/05/19 11:43:00;;;;;;;13.50;7.80;;;14.90;99.90;;;;;;4438227;28;660814;-74
2023/05/19 11:45:47;;;;;;;14.33;9.43;;;15.00;99.90;;;;;;4416870;28;659962;-74
2023/05/19 11:48:35;;;;;;;13.10;9.47;;;15.10;99.90;;;;;;4439431;28;660178;-74
2023/05/19 11:51:23;;;;;;;15.75;10.18;;;15.10;99.90;;;;;;4414468;28;661536;-73
2023/05/19 11:54:12;;;;;;;18.33;10.63;;;14.80;99.90;;;;;;4421315;28;660537;-74
2023/05/19 11:57:01;;;;;;;16.70;9.87;;;14.80;99.90;;;;;;4439666;28;660037;-74
2023/05/19 11:59:51;;;;;;;15.00;10.23;;;14.70;99.90;;;;;;4414339;28;660763;-74
2023/05/19 12:02:38;;;;;;;16.87;11.10;;;14.60;99.90;;;;;;4420667;28;661534;-74
2023/05/19 12:05:26;;;;;;;14.33;9.53;;;14.60;99.90;;;;;;4425177;28;661622;-73
2023/05/19 12:08:14;;;;;;;13.10;9.70;;;14.50;99.90;;;;;;4438993;28;659844;-75
2023/05/19 12:11:02;;;;;;;14.50;9.27;;;14.40;99.90;;;;;;4417123;28;659608;-73
2023/05/19 12:13:53;;;;;;;13.10;9.40;;;14.60;99.90;;;;;;4439609;28;659830;-75
2023/05/19 12:16:41;;;;;;;15.40;9.67;;;14.70;99.90;;;;;;4400029;28;659352;-72
2023/05/19 12:19:28;;;;;;;13.60;8.77;;;14.90;99.90;;;;;;4444649;28;660486;-74
2023/05/19 12:22:15;;;;;;;12.68;8.10;;;15.00;99.90;;;;;;4426193;28;660085;-72
2023/05/19 12:25:04;;;;;;;12.93;8.17;;;15.10;99.90;;;;;;4432727;28;661442;-73
2023/05/19 12:27:56;;;;;;;12.37;7.80;;;15.30;99.90;;;;;;4420571;28;659571;-75
2023/05/19 12:30:47;;;;;;;15.97;8.00;;;15.30;99.90;;;;;;4417444;28;660730;-75
2023/05/19 12:33:34;;;;;;;10.77;7.77;;;15.30;99.90;;;;;;4414728;28;659566;-75
2023/05/19 12:36:23;;;;;;;12.40;7.77;;;15.30;99.90;;;;;;4414590;28;659863;-75
2023/05/19 12:39:10;;;;;;;14.70;8.93;;;15.30;99.90;;;;;;4429910;28;660061;-73
2023/05/19 12:42:02;;;;;;;13.63;8.63;;;15.30;99.90;;;;;;4443350;28;660161;-75
2023/05/19 12:44:51;;;;;;;12.87;8.40;;;15.10;99.90;;;;;;4415954;28;660373;-75
2023/05/19 12:47:38;;;;;;;12.43;7.95;;;14.90;99.90;;;;;;4414148;28;661390;-75
2023/05/19 12:50:29;;;;;;;19.00;8.63;;;14.90;99.90;;;;;;4420839;28;659638;-74
2023/05/19 12:53:17;;;;;;;15.10;8.97;;;14.90;99.90;;;;;;4414581;28;661668;-74
2023/05/19 12:56:11;;;;;;;16.10;9.17;;;14.80;99.90;;;;;;4436743;28;660135;-74
2023/05/19 12:59:00;;;;;;;13.73;8.93;;;14.80;99.90;;;;;;4414592;28;659964;-74
2023/05/19 13:01:56;;;;;;;14.13;8.17;;;14.80;99.90;;;;;;4416873;28;660383;-75
2023/05/19 13:04:43;;;;;;;14.27;8.77;;;14.60;99.90;;;;;;4415148;28;660366;-74
2023/05/19 13:07:31;;;;;;;12.07;7.70;;;14.80;99.90;;;;;;4420512;28;660045;-74
2023/05/19 13:10:18;;;;;;;16.47;9.80;;;14.80;99.90;;;;;;4444416;28;659800;-74
2023/05/19 13:13:06;;;;;;;11.40;8.03;;;14.90;99.90;;;;;;4422637;28;659870;-73
2023/05/19 13:15:53;;;;;;;12.00;8.07;;;14.90;99.90;;;;;;4435991;28;660893;-74
2023/05/19 13:18:42;;;;;;;11.73;8.00;;;14.80;99.90;;;;;;4419776;28;659306;-74
2023/05/19 13:21:29;;;;;;;13.67;8.23;;;14.80;99.90;;;;;;4431714;28;659502;-75
2023/05/19 13:24:16;;;;;;;12.30;8.53;;;15.00;99.90;;;;;;4418492;28;659260;-74
2023/05/19 13:27:04;;;;;;;14.37;8.27;;;15.20;99.90;;;;;;4437873;28;660648;-74
2023/05/19 13:29:51;;;;;;;14.30;9.13;;;14.80;99.90;;;;;;4419318;28;660177;-74
2023/05/19 13:32:38;;;;;;;15.77;9.33;;;14.80;99.90;;;;;;4435238;28;660016;-75
2023/05/19 13:35:27;;;;;;;16.20;9.53;;;14.90;99.90;;;;;;4416121;28;660151;-74
2023/05/19 13:38:14;;;;;;;16.83;9.60;;;14.90;99.90;;;;;;4440093;28;660314;-74
2023/05/19 13:41:01;;;;;;;15.70;11.07;;;14.80;99.90;;;;;;4413711;28;659535;-74
2023/05/19 13:43:49;;;;;;;18.37;12.20;;;14.70;99.90;;;;;;4438474;28;660725;-74
2023/05/19 13:46:36;;;;;;;26.67;13.13;;;14.60;99.90;;;;;;4419298;28;660477;-74
2023/05/19 13:49:23;;;;;;;22.77;12.40;;;14.50;99.90;;;;;;4439179;28;661403;-74
2023/05/19 13:52:12;;;;;;;19.10;13.20;;;14.40;99.90;;;;;;4416703;28;661609;-73
2023/05/19 13:54:59;;;;;;;20.80;13.40;;;14.40;99.90;;;;;;4432486;28;661314;-74
2023/05/19 13:57:46;;;;;;;22.47;14.40;;;14.30;99.90;;;;;;4414776;28;661541;-73
2023/05/19 14:00:34;;;;;;;19.13;12.87;;;14.20;99.90;;;;;;4440316;28;661572;-73
2023/05/19 14:03:22;;;;;;;19.30;12.83;;;14.30;99.90;;;;;;4416395;28;660436;-74
2023/05/19 14:06:09;;;;;;;23.67;13.00;;;14.30;99.90;;;;;;4438261;28;661356;-74
2023/05/19 14:08:57;;;;;;;18.80;13.63;;;14.20;99.90;;;;;;4417177;28;660549;-73
2023/05/19 14:11:45;;;;;;;24.07;13.30;;;14.20;99.90;;;;;;4435428;28;660598;-73
2023/05/19 14:14:32;;;;;;;21.27;11.83;;;14.30;99.90;;;;;;4438988;28;661745;-76
2023/05/19 14:17:20;;;;;;;19.93;11.60;;;14.30;99.90;;;;;;4436821;28;661906;-73